National Weather Service Raw Text Product

Displaying AFOS PIL: TAFOTM Received: 2018-02-09 15:42 UTC


190 
FTUS43 KDMX 091542 AAC
TAFOTM
TAF AMD
KOTM 091542Z 0916/1012 02014KT 3SM -SN SCT019 BKN035
      TEMPO 0916/0919 1SM -SN BKN019 OVC035
     FM092100 02011KT P6SM OVC026
     FM092300 01010KT P6SM OVC030
     FM100300 36012KT 1 1/2SM -SN OVC018=